Airfield :
LOGIN :

Register | Disclaimer

   EN    FR    IT 

 










Legend :    VFR   Marginal VFR   IFR   Intensive IFR   Very Intensive IFR
Visi :
Ceiling :
>= 8 km
>= 3000ft
5 to 8 km
1000 to 3000 ft
1500m to 5 km
500 to 1000 ft
800 to 1500m
200 to 500 ft
< 800m
< 200 ft
Symbols :   Thunderstorms  Fog  Heavy snow  Heavy precipitations  Wind > 20 kt
SIGMETs :     Misc.  Thunderstorms  Icing  Turbulence  Mountain Waves  Volcanic Ashes






- Airport Elevation : 146 ft
- IATA code : RKE


EKRK - Roskilde Tune

CURRENT METAR :
  • 301550Z AUTO 26015KT 9999 FEW033/// 21/14 Q1003

EXPIRED METARs :
  • 301520Z AUTO 25017G28KT 9999 FEW032/// 21/14 Q1003
  • 301450Z AUTO 26016KT 230V290 9999 FEW030/// FEW065/// 21/14 Q1003
  • 301420Z AUTO 26015KT 9999 FEW028/// SCT058/// 20/15 Q1003
  • 301350Z AUTO 27011KT 9999 BKN032/// 19/16 Q1003
  • 301320Z AUTO 27011KT 9999 -RA BKN034/// 18/16 Q1003 RESHRA

TAF TAF EKRK
Valid from the 30 at 15:00 until the 31 at 00:00 UTC


301424Z 3015/3024 26018KT 9999 SCT025
TEMPO 3015/3017 26018G28KT
BECMG 3017/3020 24008KT



MET'MAP, your aeronautical weather chart ! - Copyright ORBIFLY December 2007 - Disclaimer

ORBIFLY MET'MAP TEAM :

Programming & Development : Alexandra Zaïnal
Concept & original design : Baudouin d'Aumeries
Assistance for programming : Marc-Olivier Méhu
Technical & hardware support : Manuel Goepfert

Contact : metmap@orbifly.com




SOURCES & CREDITS :

   NOAA